createdAt,value
2022-10-09T00:00:31.807Z,9.14
2022-10-09T00:03:32.969Z,9.07
2022-10-09T00:06:38.122Z,8.97
2022-10-09T00:09:28.701Z,8.90
2022-10-09T00:12:15.580Z,8.48
2022-10-09T00:15:18.061Z,8.82
2022-10-09T00:17:45.188Z,9.04
2022-10-09T00:20:35.631Z,8.93
2022-10-09T00:23:45.731Z,9.01
2022-10-09T00:26:43.478Z,8.90
2022-10-09T00:29:53.462Z,8.89
2022-10-09T00:32:36.727Z,8.54
2022-10-09T00:35:32.549Z,8.49
2022-10-09T00:38:20.146Z,8.46
2022-10-09T00:41:15.338Z,8.56
2022-10-09T00:44:45.297Z,8.58
2022-10-09T00:47:43.440Z,8.66
2022-10-09T00:50:31.745Z,8.68
2022-10-09T00:53:45.523Z,8.69
2022-10-09T00:57:07.348Z,8.50
2022-10-09T00:59:58.111Z,8.54
2022-10-09T01:02:31.761Z,8.40
2022-10-09T01:05:54.397Z,8.34
2022-10-09T01:08:49.378Z,8.40
2022-10-09T01:11:36.140Z,8.38
2022-10-09T01:14:43.529Z,8.54
2022-10-09T01:17:59.100Z,8.54
2022-10-09T01:20:55.495Z,8.38
2022-10-09T01:23:52.514Z,8.40
2022-10-09T01:27:14.562Z,8.14
2022-10-09T01:36:33.838Z,8.07
2022-10-09T01:39:36.015Z,8.07
2022-10-09T01:42:17.893Z,8.15
2022-10-09T01:44:51.882Z,8.14
2022-10-09T01:47:46.812Z,8.07
2022-10-09T01:55:19.119Z,8.10
2022-10-09T01:58:08.090Z,7.95
2022-10-09T02:01:15.682Z,7.96
2022-10-09T02:04:11.110Z,8.00
2022-10-09T02:06:51.717Z,7.96
2022-10-09T02:09:31.709Z,7.90
2022-10-09T02:12:19.603Z,7.86
2022-10-09T02:14:56.722Z,7.42
2022-10-09T02:18:14.612Z,7.04
2022-10-09T02:21:15.433Z,7.42
2022-10-09T02:24:04.885Z,7.43
2022-10-09T02:27:18.202Z,7.33
2022-10-09T02:30:08.158Z,7.11
2022-10-09T02:33:05.811Z,7.21
2022-10-09T02:36:03.813Z,7.16
2022-10-09T02:38:58.477Z,7.23
2022-10-09T02:42:01.306Z,7.14
2022-10-09T02:44:59.470Z,7.10
2022-10-09T02:47:38.232Z,7.10
2022-10-09T02:50:36.784Z,7.11
2022-10-09T02:53:32.290Z,6.98
2022-10-09T02:56:17.032Z,6.89
2022-10-09T02:59:03.454Z,7.08
2022-10-09T03:01:58.872Z,7.12
2022-10-09T03:04:56.432Z,6.53
2022-10-09T03:08:14.543Z,6.69
2022-10-09T03:11:25.638Z,6.88
2022-10-09T03:14:42.801Z,6.86
2022-10-09T03:17:35.860Z,6.91
2022-10-09T03:20:23.082Z,6.86
2022-10-09T03:23:33.021Z,6.99
2022-10-09T03:26:22.856Z,6.97
2022-10-09T03:28:54.625Z,6.70
2022-10-09T03:31:52.794Z,6.97
2022-10-09T03:34:50.534Z,6.92
2022-10-09T03:37:51.261Z,6.45
2022-10-09T03:41:00.133Z,6.91
2022-10-09T03:43:51.797Z,6.80
2022-10-09T03:46:35.328Z,6.86
2022-10-09T03:49:20.070Z,6.70
2022-10-09T03:52:09.843Z,6.74
2022-10-09T03:55:07.929Z,6.68
2022-10-09T03:58:19.077Z,6.63
2022-10-09T04:01:09.622Z,6.57
2022-10-09T04:04:17.878Z,6.54
2022-10-09T04:07:12.224Z,6.08
2022-10-09T04:10:08.905Z,6.22
2022-10-09T04:13:06.470Z,6.29
2022-10-09T04:16:04.981Z,6.20
2022-10-09T04:18:48.782Z,6.18
2022-10-09T04:21:31.902Z,6.24
2022-10-09T04:24:48.197Z,6.03
2022-10-09T04:27:53.046Z,6.17
2022-10-09T04:31:05.254Z,6.22
2022-10-09T04:34:23.560Z,6.28
2022-10-09T04:37:08.644Z,6.23
2022-10-09T04:40:05.036Z,6.36
2022-10-09T04:42:54.644Z,6.13
2022-10-09T04:45:49.434Z,6.15
2022-10-09T04:48:30.012Z,5.94
2022-10-09T04:51:28.615Z,5.95
2022-10-09T04:54:34.230Z,6.18
2022-10-09T04:57:19.924Z,6.02
2022-10-09T05:00:27.204Z,6.06
2022-10-09T05:03:18.079Z,6.00
2022-10-09T05:06:09.103Z,5.98
2022-10-09T05:08:53.557Z,5.97
2022-10-09T05:12:28.102Z,5.93
2022-10-09T05:15:29.132Z,6.08
2022-10-09T05:17:59.263Z,6.05
2022-10-09T05:20:49.357Z,5.94
2022-10-09T05:23:22.655Z,5.97
2022-10-09T05:26:13.763Z,5.89
2022-10-09T05:29:31.422Z,5.81
2022-10-09T05:32:09.649Z,5.41
2022-10-09T05:35:02.380Z,5.90
2022-10-09T05:37:35.269Z,5.90
2022-10-09T05:40:19.738Z,5.90
2022-10-09T05:43:07.428Z,5.93
2022-10-09T05:46:31.914Z,5.95
2022-10-09T05:49:49.015Z,5.97
2022-10-09T05:53:12.726Z,5.96
2022-10-09T05:55:47.918Z,5.95
2022-10-09T05:58:43.982Z,5.97
2022-10-09T06:01:25.823Z,6.02
2022-10-09T06:04:21.951Z,6.04
2022-10-09T06:07:13.922Z,5.95
2022-10-09T06:10:22.200Z,6.10
2022-10-09T06:12:56.874Z,6.09
2022-10-09T06:15:56.970Z,6.11
2022-10-09T06:18:49.433Z,6.12
2022-10-09T06:21:39.448Z,6.11
2022-10-09T06:24:52.942Z,6.18
2022-10-09T06:27:41.776Z,6.16
2022-10-09T06:30:39.013Z,6.24
2022-10-09T06:33:22.131Z,6.03
2022-10-09T06:36:41.401Z,6.31
2022-10-09T06:39:37.669Z,6.45
2022-10-09T06:42:30.114Z,6.46
2022-10-09T06:45:24.726Z,6.41
2022-10-09T06:48:19.175Z,6.57
2022-10-09T06:51:41.051Z,6.64
2022-10-09T06:54:42.327Z,6.66
2022-10-09T06:57:40.397Z,6.88
2022-10-09T07:00:22.374Z,7.00
2022-10-09T07:03:15.008Z,7.14
2022-10-09T07:06:19.024Z,7.34
2022-10-09T07:09:21.544Z,7.37
2022-10-09T07:12:56.341Z,7.64
2022-10-09T07:16:09.789Z,7.70
2022-10-09T07:19:27.858Z,7.99
2022-10-09T07:22:27.090Z,8.08
2022-10-09T07:25:26.589Z,8.43
2022-10-09T07:28:24.869Z,8.48
2022-10-09T07:31:53.460Z,8.78
2022-10-09T07:34:46.853Z,8.87
2022-10-09T07:38:05.341Z,8.88
2022-10-09T07:40:53.932Z,9.06
2022-10-09T07:44:17.129Z,9.33
2022-10-09T07:47:25.305Z,9.48
2022-10-09T07:50:13.701Z,9.97
2022-10-09T07:53:12.350Z,9.92
2022-10-09T07:56:35.268Z,10.04
2022-10-09T07:59:51.974Z,10.41
2022-10-09T08:06:11.652Z,10.48
2022-10-09T08:09:23.654Z,11.06
2022-10-09T08:12:25.272Z,10.91
2022-10-09T08:16:01.742Z,11.55
2022-10-09T08:19:05.749Z,11.57
2022-10-09T08:22:01.315Z,11.80
2022-10-09T08:24:59.078Z,12.18
2022-10-09T08:28:03.183Z,11.33
2022-10-09T08:31:12.801Z,11.59
2022-10-09T08:34:10.761Z,11.94
2022-10-09T08:37:04.306Z,12.14
2022-10-09T08:40:02.562Z,11.40
2022-10-09T08:43:18.805Z,11.94
2022-10-09T08:46:10.435Z,13.08
2022-10-09T08:49:16.592Z,12.82
2022-10-09T08:53:00.962Z,14.06
2022-10-09T08:55:46.336Z,13.21
2022-10-09T08:59:02.874Z,12.29
2022-10-09T09:01:50.865Z,12.89
2022-10-09T09:04:42.158Z,12.84
2022-10-09T09:07:41.431Z,12.59
2022-10-09T09:10:55.066Z,12.43
2022-10-09T09:13:35.259Z,12.75
2022-10-09T09:16:51.522Z,13.35
2022-10-09T09:20:04.352Z,13.33
2022-10-09T09:23:06.899Z,12.86
2022-10-09T09:26:32.429Z,13.62
2022-10-09T09:30:09.494Z,14.12
2022-10-09T09:33:19.275Z,13.40
2022-10-09T09:36:22.348Z,13.76
2022-10-09T09:42:38.293Z,14.43
2022-10-09T09:45:37.805Z,14.20
2022-10-09T09:48:47.887Z,15.09
2022-10-09T09:51:42.931Z,15.80
2022-10-09T09:55:27.051Z,14.50
2022-10-09T09:58:40.068Z,14.34
2022-10-09T10:05:34.174Z,15.18
2022-10-09T10:08:41.030Z,15.48
2022-10-09T10:18:41.061Z,17.10
2022-10-09T10:36:32.665Z,16.25
2022-10-09T10:39:56.285Z,16.89
2022-10-09T17:28:07.854Z,16.17
2022-10-09T17:31:16.243Z,15.84
2022-10-09T17:33:56.938Z,14.96
2022-10-09T17:36:45.745Z,15.04
2022-10-09T17:39:23.275Z,15.49
2022-10-09T17:42:00.821Z,15.31
2022-10-09T17:44:44.973Z,14.82
2022-10-09T17:47:52.101Z,14.76
2022-10-09T17:50:31.493Z,14.53
2022-10-09T17:53:12.230Z,14.68
2022-10-09T17:55:50.674Z,14.79
2022-10-09T17:58:24.663Z,14.73
2022-10-09T18:01:19.466Z,14.44
2022-10-09T18:03:57.815Z,14.62
2022-10-09T18:06:50.027Z,14.35
2022-10-09T18:09:48.200Z,14.68
2022-10-09T18:12:29.166Z,14.62
2022-10-09T18:15:13.564Z,14.57
2022-10-09T18:17:58.074Z,14.37
2022-10-09T18:20:33.672Z,14.37
2022-10-09T18:23:05.622Z,14.18
2022-10-09T18:25:56.303Z,14.20
2022-10-09T18:28:41.134Z,14.16
2022-10-09T18:31:21.686Z,14.23
2022-10-09T18:33:57.504Z,13.80
2022-10-09T18:36:58.223Z,13.88
2022-10-09T18:39:52.234Z,13.69
2022-10-09T18:42:22.957Z,13.76
2022-10-09T18:45:02.069Z,13.33
2022-10-09T18:47:46.986Z,12.92
2022-10-09T18:50:30.818Z,13.38
2022-10-09T18:53:33.708Z,13.49
2022-10-09T18:56:14.958Z,12.78
2022-10-09T18:58:59.448Z,12.67
2022-10-09T19:01:36.854Z,13.15
2022-10-09T19:04:20.644Z,13.32
2022-10-09T19:07:10.696Z,13.21
2022-10-09T19:09:57.179Z,12.80
2022-10-09T19:12:54.551Z,12.19
2022-10-09T19:15:38.656Z,12.34
2022-10-09T19:18:21.280Z,12.25
2022-10-09T19:21:07.016Z,12.28
2022-10-09T19:24:06.919Z,12.12
2022-10-09T19:26:41.383Z,11.94
2022-10-09T19:29:21.119Z,12.26
2022-10-09T19:32:14.772Z,12.11
2022-10-09T19:34:45.568Z,12.16
2022-10-09T19:53:01.218Z,11.84
2022-10-09T19:55:55.792Z,12.04
2022-10-09T19:58:47.228Z,12.14
2022-10-09T20:01:29.205Z,12.01
2022-10-09T20:04:08.586Z,12.14
2022-10-09T20:06:49.403Z,11.97
2022-10-09T20:09:27.128Z,11.77
2022-10-09T20:12:08.423Z,11.43
2022-10-09T20:14:42.775Z,11.43
2022-10-09T20:17:21.903Z,11.38
2022-10-09T20:19:58.218Z,11.85
2022-10-09T20:22:45.629Z,12.03
2022-10-09T20:25:24.995Z,12.13
2022-10-09T20:28:13.586Z,11.65
2022-10-09T20:31:08.021Z,11.96
2022-10-09T20:34:16.192Z,11.93
2022-10-09T20:36:47.777Z,12.01
2022-10-09T20:39:31.548Z,11.95
2022-10-09T20:42:22.775Z,11.93
2022-10-09T20:44:58.276Z,12.00
2022-10-09T20:47:37.141Z,12.00
2022-10-09T20:50:36.277Z,12.08
2022-10-09T20:53:13.194Z,11.76
2022-10-09T20:55:59.156Z,11.46
2022-10-09T20:58:39.507Z,11.26
2022-10-09T21:01:44.794Z,11.25
2022-10-09T21:04:23.602Z,11.21
2022-10-09T21:07:21.506Z,11.29
2022-10-09T21:10:00.281Z,11.28
2022-10-09T21:12:49.045Z,11.27
2022-10-09T21:15:36.315Z,10.97
2022-10-09T21:18:14.491Z,10.95
2022-10-09T21:21:14.901Z,10.58
2022-10-09T21:24:20.713Z,10.72
2022-10-09T21:26:58.491Z,10.63
2022-10-09T21:29:40.176Z,10.66
2022-10-09T21:32:18.490Z,10.81
2022-10-09T21:35:33.583Z,10.56
2022-10-09T21:38:16.843Z,10.81
2022-10-09T21:41:10.123Z,10.77
2022-10-09T21:43:56.856Z,10.13
2022-10-09T21:46:32.432Z,10.50
2022-10-09T21:49:24.754Z,10.69
2022-10-09T21:52:03.875Z,10.67
2022-10-09T21:54:48.873Z,10.75
2022-10-09T21:57:30.425Z,10.81
2022-10-09T22:00:07.790Z,10.85
2022-10-09T22:02:57.099Z,10.87
2022-10-09T22:05:42.652Z,10.66
2022-10-09T22:08:32.996Z,10.67
2022-10-09T22:11:16.503Z,10.34
2022-10-09T22:14:06.128Z,10.29
2022-10-09T22:16:49.875Z,9.97
2022-10-09T22:19:26.533Z,10.06
2022-10-09T22:22:04.420Z,9.91
2022-10-09T22:24:59.256Z,9.74
2022-10-09T22:27:52.589Z,9.65
2022-10-09T22:37:02.427Z,9.83
2022-10-09T22:39:49.446Z,9.62
2022-10-09T22:46:36.423Z,9.93
2022-10-09T22:49:30.466Z,9.83
2022-10-09T22:52:17.736Z,9.83
2022-10-09T22:55:04.015Z,9.87
2022-10-09T22:57:53.818Z,9.90
2022-10-09T23:00:32.570Z,9.84
2022-10-09T23:03:08.763Z,9.87
2022-10-09T23:05:58.944Z,9.83
2022-10-09T23:08:34.960Z,9.63
2022-10-09T23:11:20.140Z,9.66
2022-10-09T23:13:59.386Z,9.83
2022-10-09T23:16:43.798Z,9.48
2022-10-09T23:19:31.122Z,9.24
2022-10-09T23:22:14.004Z,9.32
2022-10-09T23:24:51.567Z,9.48
2022-10-09T23:27:32.437Z,8.84
2022-10-09T23:30:17.980Z,9.51
2022-10-09T23:32:49.992Z,9.43
2022-10-09T23:35:45.407Z,9.48
2022-10-09T23:38:22.059Z,9.52
2022-10-09T23:41:40.187Z,9.02
2022-10-09T23:44:24.568Z,9.08
2022-10-09T23:46:55.427Z,9.41
2022-10-09T23:49:50.582Z,9.45
2022-10-09T23:52:28.171Z,9.42
2022-10-09T23:55:18.488Z,9.61
2022-10-09T23:58:00.639Z,9.66
